createdAt,value
2022-08-21T00:00:18.386Z,19.57
2022-08-21T00:01:19.195Z,19.57
2022-08-21T00:02:19.501Z,19.55
2022-08-21T00:03:17.081Z,19.22
2022-08-21T00:04:16.138Z,19.39
2022-08-21T00:05:19.711Z,19.45
2022-08-21T00:06:17.533Z,19.42
2022-08-21T00:07:14.713Z,19.24
2022-08-21T00:08:12.214Z,18.98
2022-08-21T00:09:09.769Z,19.56
2022-08-21T00:10:07.356Z,19.49
2022-08-21T00:11:05.627Z,19.30
2022-08-21T00:12:02.620Z,19.41
2022-08-21T00:13:03.321Z,19.27
2022-08-21T00:14:00.334Z,18.66
2022-08-21T00:14:58.214Z,19.35
2022-08-21T00:15:55.387Z,19.48
2022-08-21T00:16:52.466Z,19.18
2022-08-21T00:17:51.608Z,19.35
2022-08-21T00:18:48.520Z,19.33
2022-08-21T00:19:45.326Z,19.45
2022-08-21T00:20:43.705Z,19.46
2022-08-21T00:21:40.746Z,19.44
2022-08-21T00:22:41.336Z,18.71
2022-08-21T00:23:38.130Z,19.28
2022-08-21T00:24:34.874Z,19.36
2022-08-21T00:25:32.415Z,19.39
2022-08-21T00:26:29.411Z,19.04
2022-08-21T00:27:26.411Z,18.47
2022-08-21T00:28:23.166Z,19.26
2022-08-21T00:29:20.610Z,19.41
2022-08-21T00:30:22.839Z,19.45
2022-08-21T00:31:20.242Z,19.23
2022-08-21T00:32:28.123Z,19.38
2022-08-21T00:33:26.453Z,19.47
2022-08-21T00:34:23.177Z,19.32
2022-08-21T00:35:25.554Z,19.22
2022-08-21T00:36:22.283Z,19.08
2022-08-21T00:37:19.389Z,19.04
2022-08-21T00:38:16.262Z,18.89
2022-08-21T00:39:13.206Z,19.04
2022-08-21T00:40:16.187Z,18.31
2022-08-21T00:41:21.155Z,18.69
2022-08-21T00:42:31.286Z,19.02
2022-08-21T00:43:32.839Z,19.01
2022-08-21T00:44:29.571Z,18.91
2022-08-21T00:45:28.851Z,18.22
2022-08-21T00:46:28.408Z,18.35
2022-08-21T00:47:26.299Z,18.81
2022-08-21T00:48:24.384Z,18.23
2022-08-21T00:49:21.099Z,18.71
2022-08-21T00:50:22.006Z,18.76
2022-08-21T00:51:26.491Z,18.87
2022-08-21T00:52:30.781Z,18.79
2022-08-21T00:53:30.050Z,18.85
2022-08-21T00:54:30.880Z,18.78
2022-08-21T00:55:29.328Z,18.21
2022-08-21T00:56:29.737Z,18.72
2022-08-21T00:57:34.682Z,18.75
2022-08-21T00:58:33.878Z,18.68
2022-08-21T00:59:36.296Z,18.65
2022-08-21T01:00:39.418Z,18.59
2022-08-21T01:01:36.900Z,18.19
2022-08-21T01:02:33.812Z,18.57
2022-08-21T01:03:30.559Z,18.74
2022-08-21T01:04:27.521Z,18.67
2022-08-21T01:05:24.440Z,18.86
2022-08-21T01:06:21.349Z,18.85
2022-08-21T01:07:18.824Z,18.80
2022-08-21T01:08:19.827Z,18.59
2022-08-21T01:09:16.637Z,18.57
2022-08-21T01:10:16.653Z,18.81
2022-08-21T01:11:21.589Z,18.88
2022-08-21T01:12:19.639Z,18.46
2022-08-21T01:13:19.262Z,18.64
2022-08-21T01:14:19.825Z,18.77
2022-08-21T01:15:20.240Z,18.78
2022-08-21T01:16:21.441Z,18.81
2022-08-21T01:17:20.456Z,18.75
2022-08-21T01:18:18.265Z,18.64
2022-08-21T01:19:18.158Z,18.54
2022-08-21T01:20:14.909Z,18.96
2022-08-21T01:21:21.811Z,18.95
2022-08-21T01:22:18.650Z,18.81
2022-08-21T01:23:15.428Z,18.94
2022-08-21T01:24:13.135Z,18.72
2022-08-21T01:25:12.193Z,18.67
2022-08-21T01:26:10.666Z,18.87
2022-08-21T01:27:08.096Z,18.83
2022-08-21T01:28:15.290Z,18.51
2022-08-21T01:29:26.898Z,17.47
2022-08-21T01:30:27.437Z,18.92
2022-08-21T01:31:27.506Z,19.09
2022-08-21T01:32:24.919Z,19.13
2022-08-21T01:33:25.423Z,18.87
2022-08-21T01:34:22.270Z,18.68
2022-08-21T01:35:20.951Z,18.79
2022-08-21T01:36:17.719Z,18.80
2022-08-21T01:37:15.456Z,18.84
2022-08-21T01:38:14.882Z,18.27
2022-08-21T01:39:12.575Z,18.34
2022-08-21T01:40:10.344Z,18.92
2022-08-21T01:41:07.900Z,18.61
2022-08-21T01:42:05.399Z,18.70
2022-08-21T01:43:02.177Z,18.49
2022-08-21T01:43:58.977Z,18.67
2022-08-21T01:44:56.297Z,18.77
2022-08-21T01:45:53.048Z,18.91
2022-08-21T01:46:50.395Z,18.89
2022-08-21T01:48:05.890Z,18.88
2022-08-21T01:49:04.422Z,18.97
2022-08-21T01:50:01.307Z,18.61
2022-08-21T01:50:58.035Z,19.00
2022-08-21T01:51:54.937Z,18.92
2022-08-21T01:52:52.915Z,18.24
2022-08-21T01:53:49.725Z,19.04
2022-08-21T01:54:46.467Z,19.05
2022-08-21T01:55:51.852Z,18.94
2022-08-21T01:56:53.092Z,17.95
2022-08-21T01:57:51.253Z,18.89
2022-08-21T01:58:48.944Z,18.81
2022-08-21T01:59:45.687Z,18.92
2022-08-21T02:00:42.778Z,18.67
2022-08-21T02:01:43.463Z,18.73
2022-08-21T02:02:41.909Z,18.85
2022-08-21T02:03:39.506Z,18.84
2022-08-21T02:04:36.421Z,18.84
2022-08-21T02:05:33.464Z,18.77
2022-08-21T02:06:30.209Z,18.50
2022-08-21T02:07:27.281Z,18.66
2022-08-21T02:08:24.716Z,18.53
2022-08-21T02:09:22.686Z,18.62
2022-08-21T02:10:33.050Z,18.50
2022-08-21T02:11:29.830Z,18.34
2022-08-21T02:12:26.676Z,17.49
2022-08-21T02:13:23.490Z,18.36
2022-08-21T02:14:32.057Z,17.70
2022-08-21T02:15:30.818Z,18.13
2022-08-21T02:16:27.679Z,18.38
2022-08-21T02:17:24.460Z,18.55
2022-08-21T02:18:21.333Z,18.61
2022-08-21T02:19:18.473Z,17.77
2022-08-21T02:20:25.062Z,18.52
2022-08-21T02:21:21.794Z,18.19
2022-08-21T02:22:18.574Z,18.53
2022-08-21T02:23:15.721Z,18.64
2022-08-21T02:24:13.663Z,18.78
2022-08-21T02:25:11.277Z,18.88
2022-08-21T02:26:09.158Z,18.59
2022-08-21T02:27:05.921Z,18.49
2022-08-21T02:28:12.556Z,18.40
2022-08-21T02:29:09.285Z,18.36
2022-08-21T02:30:06.493Z,18.11
2022-08-21T02:31:04.219Z,18.21
2022-08-21T02:32:00.934Z,18.09
2022-08-21T02:33:00.479Z,18.35
2022-08-21T02:33:57.241Z,18.43
2022-08-21T02:34:54.807Z,18.68
2022-08-21T02:35:53.996Z,18.76
2022-08-21T02:36:58.732Z,18.71
2022-08-21T02:38:00.431Z,18.69
2022-08-21T02:38:57.521Z,18.76
2022-08-21T02:39:54.277Z,18.80
2022-08-21T02:40:52.752Z,18.67
2022-08-21T02:41:49.467Z,18.91
2022-08-21T02:42:46.743Z,18.91
2022-08-21T02:43:43.672Z,18.78
2022-08-21T02:44:40.390Z,18.87
2022-08-21T02:45:38.679Z,18.26
2022-08-21T02:46:35.522Z,18.57
2022-08-21T02:47:32.246Z,18.68
2022-08-21T02:48:31.683Z,18.56
2022-08-21T02:49:28.395Z,18.53
2022-08-21T02:50:29.584Z,18.66
2022-08-21T02:51:26.929Z,18.51
2022-08-21T02:52:24.409Z,18.47
2022-08-21T02:53:21.842Z,18.31
2022-08-21T02:54:18.570Z,18.61
2022-08-21T02:55:15.358Z,18.47
2022-08-21T02:56:15.348Z,18.39
2022-08-21T02:57:12.105Z,18.37
2022-08-21T02:58:09.313Z,17.86
2022-08-21T02:59:06.048Z,18.31
2022-08-21T03:00:05.458Z,18.29
2022-08-21T03:01:02.965Z,18.04
2022-08-21T03:01:59.968Z,18.30
2022-08-21T03:02:58.289Z,18.29
2022-08-21T03:03:55.214Z,17.98
2022-08-21T03:04:52.011Z,18.33
2022-08-21T03:05:49.822Z,18.26
2022-08-21T03:06:46.551Z,18.38
2022-08-21T03:07:45.238Z,18.30
2022-08-21T03:08:42.874Z,18.41
2022-08-21T03:09:39.617Z,18.56
2022-08-21T03:10:53.897Z,18.82
2022-08-21T03:11:52.332Z,18.88
2022-08-21T03:12:50.263Z,18.69
2022-08-21T03:13:47.256Z,18.62
2022-08-21T03:14:44.116Z,18.21
2022-08-21T03:15:41.646Z,18.39
2022-08-21T03:16:38.468Z,18.38
2022-08-21T03:17:35.579Z,18.33
2022-08-21T03:18:32.327Z,18.50
2022-08-21T03:19:29.052Z,18.53
2022-08-21T03:20:29.259Z,18.48
2022-08-21T03:21:26.091Z,18.51
2022-08-21T03:22:22.809Z,18.58
2022-08-21T03:23:19.739Z,18.77
2022-08-21T03:24:19.607Z,18.77
2022-08-21T03:25:18.874Z,18.84
2022-08-21T03:26:19.772Z,18.72
2022-08-21T03:27:16.596Z,18.78
2022-08-21T03:28:18.118Z,17.60
2022-08-21T03:29:14.894Z,18.68
2022-08-21T03:30:12.661Z,18.41
2022-08-21T03:31:09.704Z,18.40
2022-08-21T03:32:10.205Z,18.23
2022-08-21T03:33:06.957Z,18.30
2022-08-21T03:34:03.693Z,18.85
2022-08-21T03:35:01.324Z,18.91
2022-08-21T03:36:03.008Z,18.90
2022-08-21T03:36:59.868Z,18.80
2022-08-21T03:37:57.249Z,18.77
2022-08-21T03:38:54.010Z,18.65
2022-08-21T03:39:51.131Z,18.66
2022-08-21T03:40:47.953Z,18.74
2022-08-21T03:41:44.779Z,18.89
2022-08-21T03:42:41.523Z,18.97
2022-08-21T03:43:39.492Z,19.06
2022-08-21T03:44:36.586Z,19.09
2022-08-21T03:45:33.526Z,19.11
2022-08-21T03:46:30.296Z,19.04
2022-08-21T03:47:27.050Z,18.93
2022-08-21T03:48:24.253Z,18.87
2022-08-21T03:49:20.969Z,18.93
2022-08-21T03:50:18.301Z,19.13
2022-08-21T03:51:15.074Z,19.17
2022-08-21T03:52:11.874Z,19.14
2022-08-21T03:53:16.604Z,18.92
2022-08-21T03:54:14.023Z,19.18
2022-08-21T03:55:10.850Z,19.16
2022-08-21T03:56:08.330Z,19.20
2022-08-21T03:57:05.650Z,19.16
2022-08-21T03:58:16.973Z,19.21
2022-08-21T03:59:14.685Z,18.91
2022-08-21T04:00:13.292Z,18.68
2022-08-21T04:01:10.065Z,19.29
2022-08-21T04:02:08.450Z,19.21
2022-08-21T04:03:05.508Z,19.21
2022-08-21T04:04:02.476Z,18.37
2022-08-21T04:04:59.223Z,18.83
2022-08-21T04:05:56.000Z,19.21
2022-08-21T04:06:52.906Z,19.13
2022-08-21T04:07:50.186Z,19.27
2022-08-21T04:08:47.169Z,18.87
2022-08-21T04:09:44.171Z,18.90
2022-08-21T04:10:44.164Z,18.65
2022-08-21T04:11:40.920Z,18.60
2022-08-21T04:12:37.709Z,19.10
2022-08-21T04:13:35.025Z,19.21
2022-08-21T04:14:39.981Z,19.24
2022-08-21T04:15:37.382Z,19.36
2022-08-21T04:16:34.141Z,19.14
2022-08-21T04:17:30.863Z,19.15
2022-08-21T04:18:27.852Z,19.21
2022-08-21T04:19:24.909Z,18.91
2022-08-21T04:20:23.061Z,18.55
2022-08-21T04:21:19.859Z,19.25
2022-08-21T04:22:20.970Z,19.15
2022-08-21T04:23:23.972Z,19.06
2022-08-21T04:24:21.435Z,19.05
2022-08-21T04:25:20.949Z,19.16
2022-08-21T04:26:17.968Z,19.12
2022-08-21T04:27:14.705Z,18.73
2022-08-21T04:28:11.611Z,19.20
2022-08-21T04:29:08.470Z,19.10
2022-08-21T04:30:10.031Z,19.23
2022-08-21T04:31:06.765Z,19.17
2022-08-21T04:32:03.865Z,19.11
2022-08-21T04:33:00.880Z,18.97
2022-08-21T04:33:57.922Z,18.99
2022-08-21T04:35:04.926Z,19.10
2022-08-21T04:36:02.891Z,18.98
2022-08-21T04:36:59.642Z,19.06
2022-08-21T04:37:57.315Z,18.74
2022-08-21T04:38:54.191Z,18.87
2022-08-21T04:39:53.537Z,18.91
2022-08-21T04:40:51.365Z,19.13
2022-08-21T04:41:48.119Z,19.15
2022-08-21T04:42:54.538Z,18.87
2022-08-21T04:43:51.334Z,18.83
2022-08-21T04:44:50.051Z,18.76
2022-08-21T04:45:50.115Z,18.49
2022-08-21T04:46:46.847Z,18.63
2022-08-21T04:47:52.763Z,18.93
2022-08-21T04:48:50.260Z,17.83
2022-08-21T04:49:47.749Z,19.21
2022-08-21T04:50:52.088Z,19.23
2022-08-21T04:51:49.083Z,18.85
2022-08-21T04:52:47.680Z,19.33
2022-08-21T04:54:00.077Z,19.46
2022-08-21T04:54:56.923Z,19.41
2022-08-21T04:55:57.304Z,19.47
2022-08-21T04:57:00.741Z,19.26
2022-08-21T04:57:58.505Z,19.13
2022-08-21T04:59:00.802Z,19.11
2022-08-21T04:59:57.709Z,19.28
2022-08-21T05:00:57.533Z,18.81
2022-08-21T05:01:58.759Z,19.49
2022-08-21T05:03:00.401Z,19.50
2022-08-21T05:04:00.850Z,19.56
2022-08-21T05:04:58.744Z,19.61
2022-08-21T05:05:56.077Z,19.74
2022-08-21T05:06:58.500Z,19.80
2022-08-21T05:07:55.422Z,19.69
2022-08-21T05:09:01.662Z,19.43
2022-08-21T05:10:01.215Z,19.53
2022-08-21T05:11:00.473Z,19.61
2022-08-21T05:11:58.777Z,19.56
2022-08-21T05:12:56.898Z,19.52
2022-08-21T05:13:56.358Z,19.54
2022-08-21T05:14:54.287Z,19.65
2022-08-21T05:15:51.050Z,19.53
2022-08-21T05:16:48.565Z,19.67
2022-08-21T05:17:53.755Z,19.46
2022-08-21T05:18:57.559Z,19.50
2022-08-21T05:19:54.339Z,19.37
2022-08-21T05:20:51.690Z,18.78
2022-08-21T05:21:49.002Z,19.33
2022-08-21T05:22:46.153Z,19.19
2022-08-21T05:23:43.726Z,19.44
2022-08-21T05:24:40.483Z,17.27
2022-08-21T05:25:37.230Z,19.56
2022-08-21T05:26:45.502Z,19.58
2022-08-21T05:27:43.480Z,19.34
2022-08-21T05:28:40.231Z,19.24
2022-08-21T05:29:38.026Z,19.03
2022-08-21T05:30:36.160Z,18.96
2022-08-21T05:31:33.236Z,18.70
2022-08-21T05:32:29.993Z,19.23
2022-08-21T05:33:27.012Z,19.11
2022-08-21T05:34:24.628Z,19.18
2022-08-21T05:35:21.550Z,19.41
2022-08-21T05:36:19.132Z,19.41
2022-08-21T05:37:15.905Z,19.46
2022-08-21T05:38:16.731Z,19.45
2022-08-21T05:39:15.501Z,19.68
2022-08-21T05:40:21.138Z,19.76
2022-08-21T05:41:19.654Z,19.66
2022-08-21T05:42:16.469Z,19.65
2022-08-21T05:43:13.362Z,19.59
2022-08-21T05:44:10.576Z,19.14
2022-08-21T05:45:08.315Z,19.40
2022-08-21T05:46:06.369Z,19.33
2022-08-21T05:47:09.489Z,19.34
2022-08-21T05:48:10.643Z,19.56
2022-08-21T05:49:07.466Z,19.06
2022-08-21T05:50:05.717Z,19.15
2022-08-21T05:51:16.686Z,19.04
2022-08-21T05:52:19.050Z,19.42
2022-08-21T05:53:19.672Z,19.16
2022-08-21T05:54:16.450Z,19.51
2022-08-21T05:55:14.754Z,19.29
2022-08-21T05:56:14.074Z,19.38
2022-08-21T05:57:10.830Z,19.20
2022-08-21T05:58:07.765Z,19.07
2022-08-21T05:59:08.746Z,18.93
2022-08-21T06:00:06.348Z,19.17
2022-08-21T06:01:04.676Z,19.17
2022-08-21T06:02:05.622Z,19.03
2022-08-21T06:03:05.530Z,19.02
2022-08-21T06:04:02.405Z,19.13
2022-08-21T06:04:59.525Z,19.14
2022-08-21T06:05:56.986Z,19.15
2022-08-21T06:06:53.779Z,19.25
2022-08-21T06:07:50.566Z,19.09
2022-08-21T06:08:47.466Z,19.09
2022-08-21T06:09:44.334Z,19.04
2022-08-21T06:10:41.825Z,19.10
2022-08-21T06:11:38.572Z,19.25
2022-08-21T06:12:35.513Z,19.02
2022-08-21T06:13:33.556Z,19.43
2022-08-21T06:14:30.361Z,19.32
2022-08-21T06:15:27.573Z,19.42
2022-08-21T06:16:24.638Z,19.55
2022-08-21T06:17:21.374Z,19.13
2022-08-21T06:18:18.307Z,19.46
2022-08-21T06:19:15.097Z,19.87
2022-08-21T06:20:11.923Z,19.87
2022-08-21T06:21:09.669Z,19.29
2022-08-21T06:22:06.415Z,19.75
2022-08-21T06:23:03.490Z,19.75
2022-08-21T06:24:00.298Z,19.90
2022-08-21T06:24:57.041Z,19.70
2022-08-21T06:25:53.859Z,19.93
2022-08-21T06:26:53.840Z,19.82
2022-08-21T06:27:50.626Z,19.61
2022-08-21T06:28:47.659Z,19.89
2022-08-21T06:29:46.105Z,20.08
2022-08-21T06:30:42.868Z,19.90
2022-08-21T06:31:40.442Z,19.49
2022-08-21T06:32:38.734Z,19.96
2022-08-21T06:33:35.541Z,20.10
2022-08-21T06:34:32.294Z,20.02
2022-08-21T06:35:30.079Z,20.30
2022-08-21T06:36:27.286Z,20.44
2022-08-21T06:37:24.070Z,20.57
2022-08-21T06:38:20.978Z,20.85
2022-08-21T06:39:25.356Z,20.95
2022-08-21T06:40:29.794Z,20.80
2022-08-21T06:41:27.100Z,20.93
2022-08-21T06:42:27.915Z,20.27
2022-08-21T06:43:37.874Z,20.28
2022-08-21T06:44:36.717Z,20.78
2022-08-21T06:45:33.488Z,20.77
2022-08-21T06:46:32.302Z,20.61
2022-08-21T06:47:29.036Z,20.42
2022-08-21T06:48:25.889Z,20.27
2022-08-21T06:49:22.647Z,20.30
2022-08-21T06:50:20.637Z,19.38
2022-08-21T06:51:17.458Z,20.04
2022-08-21T06:52:14.617Z,19.54
2022-08-21T06:53:16.956Z,20.21
2022-08-21T06:54:13.753Z,20.48
2022-08-21T06:55:11.321Z,20.54
2022-08-21T06:56:10.422Z,20.06
2022-08-21T06:57:07.658Z,19.63
2022-08-21T06:58:06.121Z,20.27
2022-08-21T06:59:02.960Z,20.40
2022-08-21T06:59:59.782Z,20.20
2022-08-21T07:01:00.767Z,20.68
2022-08-21T07:01:59.224Z,20.78
2022-08-21T07:02:56.301Z,21.03
2022-08-21T07:03:53.434Z,20.99
2022-08-21T07:04:50.207Z,21.37
2022-08-21T07:05:47.011Z,21.41
2022-08-21T07:06:44.070Z,20.31
2022-08-21T07:07:40.878Z,20.89
2022-08-21T07:08:39.059Z,20.60
2022-08-21T07:09:35.798Z,20.94
2022-08-21T07:10:32.632Z,21.12
2022-08-21T07:11:29.634Z,21.04
2022-08-21T07:12:44.888Z,20.87
2022-08-21T07:13:41.685Z,20.98
2022-08-21T07:14:38.496Z,20.93
2022-08-21T07:15:35.230Z,21.33
2022-08-21T07:16:32.178Z,21.15
2022-08-21T07:17:28.924Z,20.99
2022-08-21T07:18:25.733Z,20.86
2022-08-21T07:19:22.589Z,20.92
2022-08-21T07:20:19.341Z,21.19
2022-08-21T07:21:17.294Z,21.36
2022-08-21T07:22:20.887Z,20.78
2022-08-21T07:23:33.440Z,20.76
2022-08-21T07:24:30.285Z,20.63
2022-08-21T07:25:27.134Z,21.43
2022-08-21T07:26:25.303Z,21.38
2022-08-21T07:27:22.450Z,21.62
2022-08-21T07:28:19.959Z,21.80
2022-08-21T07:29:16.901Z,21.77
2022-08-21T07:30:13.786Z,21.83
2022-08-21T07:31:15.784Z,21.69
2022-08-21T07:32:13.327Z,21.84
2022-08-21T07:33:10.172Z,21.92
2022-08-21T07:34:07.188Z,22.09
2022-08-21T07:35:04.458Z,22.19
2022-08-21T07:36:01.336Z,21.94
2022-08-21T07:36:59.023Z,21.97
2022-08-21T07:37:55.861Z,21.75
2022-08-21T07:38:53.110Z,22.08
2022-08-21T07:39:50.155Z,22.17
2022-08-21T07:40:50.074Z,22.26
2022-08-21T07:41:46.873Z,22.03
2022-08-21T07:42:52.286Z,22.45
2022-08-21T07:43:49.198Z,22.34
2022-08-21T07:44:49.606Z,22.09
2022-08-21T07:45:52.869Z,21.94
2022-08-21T07:46:49.875Z,22.20
2022-08-21T07:47:47.635Z,22.36
2022-08-21T07:48:44.431Z,21.67
2022-08-21T07:49:41.229Z,22.08
2022-08-21T07:50:38.323Z,21.42
2022-08-21T07:51:35.594Z,21.77
2022-08-21T07:52:33.532Z,22.24
2022-08-21T07:53:30.378Z,22.40
2022-08-21T07:54:33.444Z,22.40
2022-08-21T07:55:31.480Z,22.24
2022-08-21T07:56:31.154Z,22.04
2022-08-21T07:57:27.884Z,21.93
2022-08-21T07:58:24.799Z,21.89
2022-08-21T07:59:21.771Z,22.15
2022-08-21T08:00:22.979Z,22.25
2022-08-21T08:01:20.082Z,22.67
2022-08-21T08:02:28.317Z,22.62
2022-08-21T08:03:28.757Z,22.77
2022-08-21T08:04:33.569Z,22.49
2022-08-21T08:05:32.932Z,22.73
2022-08-21T08:06:30.438Z,22.91
2022-08-21T08:07:27.334Z,23.15
2022-08-21T08:08:24.727Z,23.06
2022-08-21T08:09:21.658Z,23.02
2022-08-21T08:10:20.975Z,23.43
2022-08-21T08:11:20.505Z,23.12
2022-08-21T08:12:17.573Z,22.74
2022-08-21T08:13:14.573Z,21.77
2022-08-21T08:14:12.241Z,22.25
2022-08-21T08:15:13.818Z,23.40
2022-08-21T08:16:11.510Z,22.13
2022-08-21T08:17:08.560Z,22.46
2022-08-21T08:18:05.754Z,22.56
2022-08-21T08:19:02.787Z,22.63
2022-08-21T08:20:04.430Z,22.12
2022-08-21T08:21:01.337Z,22.00
2022-08-21T08:21:58.094Z,22.39
2022-08-21T08:22:55.694Z,22.74
2022-08-21T08:23:53.172Z,22.92
2022-08-21T08:24:50.371Z,23.25
2022-08-21T08:25:47.521Z,22.89
2022-08-21T08:26:44.270Z,23.10
2022-08-21T08:27:41.322Z,23.40
2022-08-21T08:28:38.194Z,23.58
2022-08-21T08:29:34.997Z,23.71
2022-08-21T08:30:33.193Z,23.39
2022-08-21T08:31:30.003Z,23.63
2022-08-21T08:32:26.863Z,23.65
2022-08-21T08:33:23.619Z,23.43
2022-08-21T08:34:25.398Z,22.98
2022-08-21T08:35:24.372Z,22.78
2022-08-21T08:36:34.515Z,23.33
2022-08-21T08:37:34.499Z,23.14
2022-08-21T08:38:31.545Z,23.27
2022-08-21T08:39:29.742Z,23.46
2022-08-21T08:40:39.244Z,23.28
2022-08-21T08:41:42.849Z,23.64
2022-08-21T08:42:40.542Z,23.53
2022-08-21T08:43:37.551Z,21.98
2022-08-21T08:44:35.521Z,20.68
2022-08-21T08:45:38.483Z,22.59
2022-08-21T08:46:53.626Z,22.44
2022-08-21T08:47:59.775Z,22.74
2022-08-21T08:49:14.451Z,23.27
2022-08-21T08:50:26.753Z,22.98
2022-08-21T08:51:48.450Z,23.11
2022-08-21T08:52:52.818Z,23.03
2022-08-21T08:54:03.692Z,23.21
2022-08-21T08:55:13.398Z,23.18
2022-08-21T08:56:11.936Z,23.26
2022-08-21T08:57:15.279Z,23.39
2022-08-21T08:58:26.148Z,24.00
2022-08-21T08:59:31.457Z,23.99
2022-08-21T09:00:32.079Z,23.12
2022-08-21T09:01:29.172Z,23.60
2022-08-21T09:02:28.505Z,23.22
2022-08-21T09:03:27.825Z,23.98
2022-08-21T09:04:29.750Z,24.26
2022-08-21T09:05:47.496Z,24.44
2022-08-21T09:07:00.984Z,24.33
2022-08-21T09:08:19.261Z,24.09
2022-08-21T09:09:49.751Z,24.30
2022-08-21T09:10:58.532Z,24.31
2022-08-21T09:12:26.235Z,24.64
2022-08-21T09:13:39.331Z,24.68
2022-08-21T09:14:42.073Z,24.93
2022-08-21T09:15:53.120Z,24.77
2022-08-21T09:17:16.606Z,24.78
2022-08-21T09:18:23.779Z,24.88
2022-08-21T09:19:44.649Z,25.03
2022-08-21T09:20:59.436Z,24.98
2022-08-21T09:22:15.001Z,24.84
2022-08-21T09:23:26.710Z,24.92
2022-08-21T09:24:23.359Z,24.95
2022-08-21T09:25:26.655Z,24.23
2022-08-21T09:26:31.665Z,24.59
2022-08-21T09:27:32.434Z,24.38
2022-08-21T09:28:42.052Z,24.10
2022-08-21T09:29:42.329Z,23.92
2022-08-21T09:30:42.526Z,24.14
2022-08-21T09:31:39.385Z,24.44
2022-08-21T09:32:39.770Z,24.65
2022-08-21T09:33:36.590Z,24.54
2022-08-21T09:34:33.449Z,24.20
2022-08-21T09:35:30.339Z,24.29
2022-08-21T09:36:44.031Z,24.94
2022-08-21T09:37:59.217Z,25.09
2022-08-21T09:38:56.243Z,24.83
2022-08-21T09:39:53.123Z,24.62
2022-08-21T09:40:59.333Z,24.95
2022-08-21T09:42:24.724Z,25.03
2022-08-21T09:43:25.819Z,24.47
2022-08-21T09:44:28.191Z,24.79
2022-08-21T09:45:25.031Z,24.83
2022-08-21T09:46:26.182Z,24.61
2022-08-21T09:47:27.562Z,24.65
2022-08-21T09:48:27.167Z,24.57
2022-08-21T09:49:32.603Z,24.51
2022-08-21T09:50:30.186Z,24.27
2022-08-21T09:51:31.639Z,23.94
2022-08-21T09:52:28.612Z,24.31
2022-08-21T09:53:35.007Z,24.66
2022-08-21T09:54:38.089Z,24.98
2022-08-21T09:56:06.318Z,24.94
2022-08-21T09:57:29.121Z,24.96
2022-08-21T09:58:34.702Z,24.02
2022-08-21T09:59:37.155Z,24.55
2022-08-21T10:00:36.788Z,24.55
2022-08-21T10:01:44.249Z,24.55
2022-08-21T10:02:40.985Z,24.71
2022-08-21T10:03:37.754Z,24.55
2022-08-21T10:04:37.312Z,24.73
2022-08-21T10:05:34.107Z,24.21
2022-08-21T10:06:30.908Z,25.09
2022-08-21T10:07:31.212Z,25.01
2022-08-21T10:08:29.631Z,25.34
2022-08-21T10:09:26.978Z,24.96
2022-08-21T10:10:29.761Z,25.41
2022-08-21T10:11:30.547Z,25.47
2022-08-21T10:12:42.277Z,25.51
2022-08-21T10:14:02.695Z,25.64
2022-08-21T10:15:14.547Z,25.69
2022-08-21T10:16:20.307Z,25.82
2022-08-21T10:17:17.003Z,25.74
2022-08-21T10:18:49.045Z,25.43
2022-08-21T10:20:00.677Z,25.64
2022-08-21T10:21:10.175Z,25.81
2022-08-21T10:22:42.362Z,25.99
2022-08-21T10:23:53.983Z,26.06
2022-08-21T10:24:50.707Z,25.65
2022-08-21T10:26:13.185Z,24.97
2022-08-21T10:27:24.410Z,25.57
2022-08-21T10:28:32.828Z,25.92
2022-08-21T10:30:01.612Z,25.98
2022-08-21T10:31:16.986Z,26.15
2022-08-21T10:32:59.167Z,25.85
2022-08-21T10:34:08.092Z,26.01
2022-08-21T10:35:19.702Z,25.72
2022-08-21T10:36:48.349Z,25.95
2022-08-21T10:38:09.242Z,25.90
2022-08-21T10:39:35.278Z,25.87
2022-08-21T10:40:32.741Z,26.01
2022-08-21T10:41:42.242Z,25.97
2022-08-21T10:42:48.938Z,25.13
2022-08-21T10:44:16.125Z,26.02
2022-08-21T10:45:33.894Z,25.60
2022-08-21T10:46:37.622Z,25.59
2022-08-21T10:47:42.950Z,25.55
2022-08-21T10:48:59.675Z,24.73
2022-08-21T10:50:02.851Z,25.67
2022-08-21T10:51:10.773Z,25.76
2022-08-21T10:52:35.047Z,26.01
2022-08-21T10:54:18.181Z,25.57
2022-08-21T10:55:26.929Z,25.63
2022-08-21T10:56:27.884Z,25.00
2022-08-21T10:58:03.155Z,25.54
2022-08-21T10:59:27.446Z,25.50
2022-08-21T11:00:34.695Z,25.41
2022-08-21T11:01:46.446Z,25.40
2022-08-21T11:02:54.658Z,24.80
2022-08-21T11:04:10.314Z,24.75
2022-08-21T11:05:13.108Z,24.49
2022-08-21T11:06:24.148Z,25.49
2022-08-21T11:07:34.017Z,25.60
2022-08-21T11:08:43.494Z,25.74
2022-08-21T11:09:46.815Z,25.60
2022-08-21T11:10:59.457Z,26.12
2022-08-21T11:12:13.490Z,26.00
2022-08-21T11:13:31.122Z,25.97
2022-08-21T11:14:49.895Z,26.18
2022-08-21T11:16:12.203Z,26.28
2022-08-21T11:17:13.241Z,26.12
2022-08-21T11:18:15.938Z,26.14
2022-08-21T11:19:39.540Z,26.19
2022-08-21T11:20:47.546Z,26.18
2022-08-21T11:22:02.748Z,26.28
2022-08-21T11:23:26.091Z,26.10
2022-08-21T11:24:45.595Z,25.94
2022-08-21T11:25:50.284Z,26.26
2022-08-21T11:26:54.839Z,26.04
2022-08-21T11:28:22.796Z,25.39
2022-08-21T11:29:31.097Z,26.15
2022-08-21T11:30:43.640Z,25.79
2022-08-21T11:31:49.163Z,26.36
2022-08-21T11:32:59.503Z,26.51
2022-08-21T11:34:25.413Z,26.37
2022-08-21T11:35:34.228Z,26.41
2022-08-21T11:36:58.355Z,26.45
2022-08-21T11:37:58.022Z,26.16
2022-08-21T11:39:01.285Z,26.14
2022-08-21T11:40:16.836Z,26.35
2022-08-21T11:41:26.162Z,26.06
2022-08-21T11:42:52.378Z,26.33
2022-08-21T11:44:03.078Z,26.34
2022-08-21T11:45:30.162Z,26.43
2022-08-21T11:46:47.071Z,26.50
2022-08-21T11:48:05.275Z,26.52
2022-08-21T11:49:20.044Z,26.46
2022-08-21T11:50:34.237Z,26.07
2022-08-21T11:51:39.204Z,26.05
2022-08-21T11:52:56.455Z,26.39
2022-08-21T11:54:14.116Z,26.10
2022-08-21T11:55:49.489Z,25.71
2022-08-21T11:57:05.120Z,26.44
2022-08-21T11:58:20.046Z,26.55
2022-08-21T11:59:37.577Z,26.47
2022-08-21T12:00:44.752Z,26.47
2022-08-21T12:01:46.292Z,26.11
2022-08-21T12:02:57.538Z,26.49
2022-08-21T12:04:09.522Z,26.57
2022-08-21T12:05:12.477Z,26.49
2022-08-21T12:06:13.126Z,26.50
2022-08-21T12:07:18.206Z,26.67
2022-08-21T12:08:30.522Z,26.77
2022-08-21T12:09:35.495Z,26.64
2022-08-21T12:10:36.440Z,26.35
2022-08-21T12:11:46.181Z,26.48
2022-08-21T12:12:45.572Z,26.01
2022-08-21T12:14:12.223Z,26.26
2022-08-21T12:15:28.323Z,26.17
2022-08-21T12:16:38.280Z,26.29
2022-08-21T12:17:41.313Z,26.07
2022-08-21T12:18:39.073Z,26.06
2022-08-21T12:19:36.849Z,25.95
2022-08-21T12:20:36.221Z,25.55
2022-08-21T12:21:34.172Z,26.31
2022-08-21T12:22:41.835Z,26.18
2022-08-21T12:24:02.390Z,26.21
2022-08-21T12:25:11.126Z,25.89
2022-08-21T12:26:29.135Z,26.72
2022-08-21T12:27:50.409Z,26.69
2022-08-21T12:28:48.275Z,26.67
2022-08-21T12:29:51.622Z,26.68
2022-08-21T12:30:49.808Z,26.44
2022-08-21T12:31:55.421Z,26.73
2022-08-21T12:32:57.515Z,26.63
2022-08-21T12:34:02.105Z,25.73
2022-08-21T12:35:23.216Z,26.54
2022-08-21T12:36:28.238Z,26.48
2022-08-21T12:37:50.846Z,26.33
2022-08-21T12:38:47.519Z,26.62
2022-08-21T12:39:48.433Z,26.39
2022-08-21T12:41:23.746Z,26.67
2022-08-21T12:42:44.860Z,26.62
2022-08-21T12:43:52.608Z,26.53
2022-08-21T12:45:18.427Z,26.67
2022-08-21T12:46:22.570Z,26.66
2022-08-21T12:47:31.960Z,26.70
2022-08-21T12:48:45.214Z,26.74
2022-08-21T12:50:10.375Z,26.49
2022-08-21T12:51:17.805Z,25.94
2022-08-21T12:52:29.794Z,26.23
2022-08-21T12:53:43.510Z,25.94
2022-08-21T12:54:44.144Z,26.36
2022-08-21T12:55:44.483Z,25.94
2022-08-21T12:56:41.270Z,26.03
2022-08-21T12:57:38.901Z,26.48
2022-08-21T12:58:35.762Z,26.18
2022-08-21T12:59:37.918Z,25.92
2022-08-21T13:00:34.690Z,26.24
2022-08-21T13:01:53.061Z,26.16
2022-08-21T13:02:52.778Z,25.95
2022-08-21T13:03:57.078Z,25.94
2022-08-21T13:05:07.454Z,25.82
2022-08-21T13:06:06.671Z,26.10
2022-08-21T13:07:11.964Z,26.22
2022-08-21T13:08:13.844Z,26.12
2022-08-21T13:09:17.812Z,26.17
2022-08-21T13:10:27.205Z,26.36
2022-08-21T13:11:32.666Z,26.20
2022-08-21T13:12:34.047Z,26.07
2022-08-21T13:13:31.715Z,26.18
2022-08-21T13:14:31.603Z,26.19
2022-08-21T13:15:35.116Z,25.68
2022-08-21T13:16:33.363Z,25.16
2022-08-21T13:17:38.687Z,25.86